createdAt,value
2019-01-14T00:00:28.990Z,12.20
2019-01-14T00:01:28.978Z,7.00
2019-01-14T00:02:28.978Z,11.40
2019-01-14T00:03:28.967Z,10.20
2019-01-14T00:04:28.939Z,9.90
2019-01-14T00:05:29.023Z,14.70
2019-01-14T00:06:28.923Z,9.30
2019-01-14T00:07:28.921Z,10.40
2019-01-14T00:08:28.895Z,16.50
2019-01-14T00:09:31.109Z,13.10
2019-01-14T00:10:28.910Z,13.40
2019-01-14T00:11:28.868Z,16.70
2019-01-14T00:12:28.857Z,11.50
2019-01-14T00:13:28.850Z,16.30
2019-01-14T00:14:28.829Z,12.10
2019-01-14T00:15:28.869Z,18.50
2019-01-14T00:16:28.863Z,13.10
2019-01-14T00:17:28.802Z,13.40
2019-01-14T00:18:28.784Z,11.50
2019-01-14T00:19:28.771Z,9.50
2019-01-14T00:20:28.764Z,14.40
2019-01-14T00:21:28.817Z,12.50
2019-01-14T00:22:28.754Z,15.20
2019-01-14T00:23:28.733Z,12.10
2019-01-14T00:24:28.770Z,16.00
2019-01-14T00:25:28.726Z,16.20
2019-01-14T00:26:28.721Z,17.50
2019-01-14T00:27:28.714Z,12.80
2019-01-14T00:28:28.693Z,17.20
2019-01-14T00:29:28.679Z,12.00
2019-01-14T00:30:28.665Z,12.90
2019-01-14T00:31:28.649Z,13.90
2019-01-14T00:32:28.682Z,16.00
2019-01-14T00:33:28.627Z,17.80
2019-01-14T00:34:28.608Z,14.30
2019-01-14T00:35:28.599Z,16.60
2019-01-14T00:36:28.590Z,19.00
2019-01-14T00:37:28.616Z,15.80
2019-01-14T00:38:28.573Z,16.90
2019-01-14T00:39:28.549Z,19.80
2019-01-14T00:40:28.672Z,15.80
2019-01-14T00:41:28.543Z,17.70
2019-01-14T00:42:28.537Z,17.70
2019-01-14T00:43:28.513Z,19.00
2019-01-14T00:44:28.513Z,18.30
2019-01-14T00:45:28.531Z,18.90
2019-01-14T00:46:28.479Z,16.30
2019-01-14T00:47:28.518Z,15.80
2019-01-14T00:48:28.461Z,14.80
2019-01-14T00:49:28.440Z,10.60
2019-01-14T00:50:28.434Z,14.80
2019-01-14T00:51:28.423Z,12.60
2019-01-14T00:52:28.405Z,12.90
2019-01-14T00:53:28.417Z,16.90
2019-01-14T00:54:28.388Z,14.10
2019-01-14T00:55:28.408Z,17.60
2019-01-14T00:56:28.364Z,18.10
2019-01-14T00:57:28.346Z,12.40
2019-01-14T00:58:28.340Z,18.40
2019-01-14T00:59:28.325Z,20.20
2019-01-14T01:00:28.315Z,16.50
2019-01-14T01:01:28.322Z,15.60
2019-01-14T01:02:28.297Z,14.00
2019-01-14T01:03:28.281Z,13.70
2019-01-14T01:04:28.274Z,15.20
2019-01-14T01:05:28.264Z,14.70
2019-01-14T01:06:28.299Z,15.70
2019-01-14T01:07:28.242Z,16.60
2019-01-14T01:08:28.232Z,15.30
2019-01-14T01:09:28.214Z,17.90
2019-01-14T01:10:28.208Z,16.20
2019-01-14T01:11:28.196Z,17.00
2019-01-14T01:12:28.205Z,18.50
2019-01-14T01:13:28.169Z,15.30
2019-01-14T01:14:28.195Z,12.50
2019-01-14T01:15:28.148Z,20.50
2019-01-14T01:16:28.138Z,13.90
2019-01-14T01:17:28.152Z,15.60
2019-01-14T01:18:28.133Z,14.90
2019-01-14T01:19:28.108Z,16.20
2019-01-14T01:20:28.101Z,11.60
2019-01-14T01:21:28.085Z,15.60
2019-01-14T01:22:28.069Z,16.00
2019-01-14T01:23:28.088Z,15.50
2019-01-14T01:24:28.049Z,16.10
2019-01-14T01:25:28.035Z,14.60
2019-01-14T01:26:28.028Z,21.00
2019-01-14T01:27:28.012Z,16.30
2019-01-14T01:28:28.038Z,20.50
2019-01-14T01:29:27.995Z,18.60
2019-01-14T01:30:27.985Z,16.20
2019-01-14T01:31:27.975Z,17.70
2019-01-14T01:32:27.961Z,13.50
2019-01-14T01:33:27.994Z,16.40
2019-01-14T01:34:27.962Z,17.40
2019-01-14T01:35:27.927Z,20.20
2019-01-14T01:36:31.889Z,16.90
2019-01-14T01:37:27.906Z,20.00
2019-01-14T01:38:27.889Z,14.80
2019-01-14T01:39:27.907Z,17.30
2019-01-14T01:40:27.871Z,10.80
2019-01-14T01:41:27.859Z,18.10
2019-01-14T01:42:27.846Z,11.80
2019-01-14T01:43:27.839Z,15.10
2019-01-14T01:44:27.853Z,16.80
2019-01-14T01:45:27.824Z,16.00
2019-01-14T01:46:27.856Z,16.90
2019-01-14T01:47:27.789Z,15.00
2019-01-14T01:48:27.784Z,17.90
2019-01-14T01:49:27.774Z,16.30
2019-01-14T01:50:27.764Z,16.40
2019-01-14T01:51:27.747Z,15.30
2019-01-14T01:52:27.765Z,16.20
2019-01-14T01:53:27.731Z,16.80
2019-01-14T01:54:27.715Z,13.30
2019-01-14T01:55:28.550Z,16.00
2019-01-14T01:56:27.735Z,17.70
2019-01-14T01:57:27.680Z,14.30
2019-01-14T01:58:27.670Z,13.70
2019-01-14T01:59:27.661Z,16.80
2019-01-14T02:00:27.662Z,16.50
2019-01-14T02:01:27.640Z,15.40
2019-01-14T02:02:27.641Z,12.60
2019-01-14T02:03:27.614Z,16.50
2019-01-14T02:04:27.605Z,17.60
2019-01-14T02:05:27.592Z,19.20
2019-01-14T02:06:27.582Z,17.90
2019-01-14T02:07:27.576Z,12.80
2019-01-14T02:08:27.555Z,15.80
2019-01-14T02:09:27.548Z,18.50
2019-01-14T02:10:27.536Z,17.60
2019-01-14T02:11:27.526Z,14.90
2019-01-14T02:12:27.526Z,18.10
2019-01-14T02:13:27.514Z,18.40
2019-01-14T02:14:27.498Z,21.20
2019-01-14T02:15:27.483Z,15.70
2019-01-14T02:16:27.470Z,15.60
2019-01-14T02:17:27.463Z,20.60
2019-01-14T02:18:27.488Z,16.80
2019-01-14T02:19:27.438Z,18.90
2019-01-14T02:20:27.428Z,15.60
2019-01-14T02:21:27.416Z,18.30
2019-01-14T02:22:27.404Z,20.00
2019-01-14T02:23:27.398Z,21.20
2019-01-14T02:24:27.398Z,13.40
2019-01-14T02:25:27.373Z,16.80
2019-01-14T02:26:27.356Z,20.10
2019-01-14T02:27:27.350Z,19.80
2019-01-14T02:28:27.338Z,18.40
2019-01-14T02:29:27.386Z,23.70
2019-01-14T02:30:27.318Z,13.80
2019-01-14T02:31:27.315Z,17.70
2019-01-14T02:32:27.294Z,19.90
2019-01-14T02:33:27.277Z,16.40
2019-01-14T02:34:27.272Z,25.30
2019-01-14T02:35:27.310Z,18.50
2019-01-14T02:36:27.280Z,17.10
2019-01-14T02:37:27.239Z,16.60
2019-01-14T02:38:27.223Z,18.20
2019-01-14T02:39:27.211Z,20.20
2019-01-14T02:40:27.201Z,20.70
2019-01-14T02:41:27.210Z,18.30
2019-01-14T02:42:27.186Z,16.20
2019-01-14T02:43:27.167Z,16.30
2019-01-14T02:44:27.159Z,17.20
2019-01-14T02:45:27.145Z,20.70
2019-01-14T02:46:27.171Z,16.10
2019-01-14T02:47:27.137Z,17.40
2019-01-14T02:48:27.119Z,20.70
2019-01-14T02:49:27.114Z,16.10
2019-01-14T02:50:27.099Z,14.30
2019-01-14T02:51:27.081Z,14.00
2019-01-14T02:52:27.088Z,18.90
2019-01-14T02:53:27.057Z,21.70
2019-01-14T02:54:27.053Z,19.80
2019-01-14T02:55:27.036Z,17.40
2019-01-14T02:56:27.027Z,17.40
2019-01-14T02:57:27.027Z,14.00
2019-01-14T02:58:27.005Z,18.40
2019-01-14T02:59:26.995Z,18.90
2019-01-14T03:00:26.985Z,17.90
2019-01-14T03:01:26.972Z,17.50
2019-01-14T03:02:26.984Z,16.20
2019-01-14T03:03:26.956Z,15.70
2019-01-14T03:04:26.942Z,16.90
2019-01-14T03:05:26.934Z,19.00
2019-01-14T03:06:26.913Z,15.60
2019-01-14T03:07:26.906Z,18.10
2019-01-14T03:08:26.919Z,18.10
2019-01-14T03:09:26.885Z,17.60
2019-01-14T03:10:26.866Z,15.40
2019-01-14T03:11:26.857Z,17.20
2019-01-14T03:12:33.950Z,16.50
2019-01-14T03:13:26.834Z,18.30
2019-01-14T03:14:26.827Z,17.00
2019-01-14T03:15:26.820Z,20.30
2019-01-14T03:16:26.799Z,14.60
2019-01-14T03:17:26.791Z,16.30
2019-01-14T03:18:26.792Z,18.00
2019-01-14T03:19:26.771Z,17.00
2019-01-14T03:20:26.756Z,17.70
2019-01-14T03:21:26.748Z,16.80
2019-01-14T03:22:26.733Z,13.70
2019-01-14T03:23:26.750Z,17.60
2019-01-14T03:24:26.717Z,12.70
2019-01-14T03:25:26.699Z,18.80
2019-01-14T03:26:26.692Z,13.30
2019-01-14T03:27:27.589Z,18.20
2019-01-14T03:28:26.669Z,13.90
2019-01-14T03:29:26.804Z,13.90
2019-01-14T03:30:26.651Z,13.50
2019-01-14T03:31:26.642Z,15.30
2019-01-14T03:32:26.634Z,12.50
2019-01-14T03:33:26.668Z,13.30
2019-01-14T03:34:26.607Z,14.70
2019-01-14T03:35:26.600Z,16.90
2019-01-14T03:36:26.577Z,13.80
2019-01-14T03:37:26.571Z,13.60
2019-01-14T03:38:26.564Z,10.00
2019-01-14T03:39:26.553Z,18.80
2019-01-14T03:40:26.549Z,16.40
2019-01-14T03:41:26.521Z,15.20
2019-01-14T03:42:26.516Z,14.70
2019-01-14T03:43:26.505Z,11.60
2019-01-14T03:44:26.490Z,19.00
2019-01-14T03:45:26.502Z,17.00
2019-01-14T03:46:26.465Z,15.10
2019-01-14T03:47:26.467Z,13.60
2019-01-14T03:48:26.453Z,16.60
2019-01-14T03:49:26.440Z,15.00
2019-01-14T03:50:26.428Z,20.70
2019-01-14T03:51:26.444Z,22.10
2019-01-14T03:52:26.400Z,15.70
2019-01-14T03:53:26.401Z,20.90
2019-01-14T03:54:26.379Z,16.40
2019-01-14T03:55:26.374Z,14.60
2019-01-14T03:56:26.360Z,15.50
2019-01-14T03:57:26.361Z,14.60
2019-01-14T03:58:26.337Z,11.30
2019-01-14T03:59:26.331Z,15.20
2019-01-14T04:00:26.317Z,15.30
2019-01-14T04:01:26.307Z,18.30
2019-01-14T04:02:26.307Z,19.50
2019-01-14T04:03:26.292Z,17.60
2019-01-14T04:04:26.280Z,14.40
2019-01-14T04:05:26.259Z,19.20
2019-01-14T04:06:26.257Z,14.10
2019-01-14T04:07:26.270Z,17.00
2019-01-14T04:08:26.229Z,17.50
2019-01-14T04:09:26.220Z,19.20
2019-01-14T04:10:26.204Z,18.00
2019-01-14T04:11:26.193Z,18.70
2019-01-14T04:12:26.195Z,19.30
2019-01-14T04:13:26.187Z,18.50
2019-01-14T04:14:26.164Z,17.60
2019-01-14T04:15:26.150Z,22.70
2019-01-14T04:16:26.137Z,15.80
2019-01-14T04:17:26.166Z,16.50
2019-01-14T04:18:26.126Z,19.40
2019-01-14T04:19:26.109Z,14.20
2019-01-14T04:20:26.098Z,15.60
2019-01-14T04:21:26.091Z,17.40
2019-01-14T04:22:26.084Z,14.50
2019-01-14T04:23:26.093Z,14.30
2019-01-14T04:24:26.050Z,15.70
2019-01-14T04:25:26.039Z,13.80
2019-01-14T04:26:26.033Z,17.10
2019-01-14T04:27:26.024Z,15.50
2019-01-14T04:28:26.068Z,14.20
2019-01-14T04:29:25.994Z,16.40
2019-01-14T04:30:25.985Z,14.50
2019-01-14T04:31:26.001Z,17.00
2019-01-14T04:32:25.966Z,11.30
2019-01-14T04:33:25.955Z,15.20
2019-01-14T04:34:25.962Z,12.00
2019-01-14T04:35:25.928Z,11.40
2019-01-14T04:36:25.926Z,10.00
2019-01-14T04:37:25.922Z,15.10
2019-01-14T04:38:25.898Z,13.90
2019-01-14T04:39:25.925Z,14.40
2019-01-14T04:40:25.892Z,12.40
2019-01-14T04:41:25.897Z,11.70
2019-01-14T04:42:25.857Z,13.40
2019-01-14T04:43:25.843Z,10.10
2019-01-14T04:44:25.868Z,15.80
2019-01-14T04:45:25.929Z,10.00
2019-01-14T04:46:25.811Z,13.20
2019-01-14T04:47:25.804Z,11.30
2019-01-14T04:48:27.288Z,12.60
2019-01-14T04:49:25.780Z,14.20
2019-01-14T04:50:25.798Z,14.60
2019-01-14T04:51:25.764Z,8.40
2019-01-14T04:52:25.742Z,15.00
2019-01-14T04:53:25.756Z,12.20
2019-01-14T04:54:25.721Z,11.70
2019-01-14T04:55:25.780Z,11.50
2019-01-14T04:56:25.699Z,12.20
2019-01-14T04:57:25.692Z,10.00
2019-01-14T04:58:25.686Z,12.60
2019-01-14T04:59:25.694Z,13.60
2019-01-14T05:00:25.662Z,8.40
2019-01-14T05:01:25.659Z,11.70
2019-01-14T05:02:25.640Z,13.40
2019-01-14T05:03:25.630Z,13.10
2019-01-14T05:04:25.617Z,14.60
2019-01-14T05:05:25.604Z,12.60
2019-01-14T05:06:25.630Z,11.50
2019-01-14T05:07:29.743Z,11.20
2019-01-14T05:08:25.572Z,10.10
2019-01-14T05:09:27.221Z,12.70
2019-01-14T05:10:25.545Z,10.60
2019-01-14T05:11:25.541Z,10.60
2019-01-14T05:12:25.570Z,16.20
2019-01-14T05:13:25.517Z,13.50
2019-01-14T05:14:25.511Z,10.10
2019-01-14T05:15:25.504Z,12.30
2019-01-14T05:16:25.482Z,13.80
2019-01-14T05:17:25.469Z,10.00
2019-01-14T05:18:25.488Z,10.50
2019-01-14T05:19:25.475Z,10.50
2019-01-14T05:20:25.444Z,10.20
2019-01-14T05:21:25.422Z,12.50
2019-01-14T05:22:25.418Z,11.70
2019-01-14T05:23:25.422Z,11.30
2019-01-14T05:24:25.397Z,13.00
2019-01-14T05:25:25.386Z,11.70
2019-01-14T05:26:25.372Z,17.50
2019-01-14T05:27:25.361Z,13.40
2019-01-14T05:28:25.350Z,9.70
2019-01-14T05:29:25.374Z,14.10
2019-01-14T05:30:25.326Z,9.20
2019-01-14T05:31:25.320Z,12.30
2019-01-14T05:32:25.311Z,11.30
2019-01-14T05:33:25.324Z,14.40
2019-01-14T05:34:25.320Z,11.00
2019-01-14T05:35:25.277Z,11.70
2019-01-14T05:36:25.266Z,11.80
2019-01-14T05:37:25.251Z,11.50
2019-01-14T05:38:25.241Z,11.10
2019-01-14T05:39:25.225Z,11.00
2019-01-14T05:40:25.236Z,9.80
2019-01-14T05:41:25.206Z,9.90
2019-01-14T05:42:25.195Z,9.90
2019-01-14T05:43:25.188Z,12.40
2019-01-14T05:44:25.180Z,14.50
2019-01-14T05:45:25.219Z,10.40
2019-01-14T05:46:25.152Z,9.00
2019-01-14T05:47:25.140Z,9.60
2019-01-14T05:48:25.126Z,15.80
2019-01-14T05:49:25.123Z,11.20
2019-01-14T05:50:25.122Z,12.00
2019-01-14T05:51:25.106Z,12.40
2019-01-14T05:52:25.101Z,12.10
2019-01-14T05:53:25.113Z,13.20
2019-01-14T05:54:25.095Z,10.70
2019-01-14T05:55:25.067Z,9.50
2019-01-14T05:56:25.066Z,13.20
2019-01-14T05:57:25.051Z,12.60
2019-01-14T05:58:25.021Z,13.90
2019-01-14T05:59:25.010Z,9.30
2019-01-14T06:00:24.997Z,8.20
2019-01-14T06:01:24.997Z,9.90
2019-01-14T06:02:24.975Z,11.70
2019-01-14T06:03:24.969Z,12.40
2019-01-14T06:04:24.957Z,10.10
2019-01-14T06:05:24.942Z,10.00
2019-01-14T06:06:24.991Z,11.40
2019-01-14T06:07:24.924Z,10.80
2019-01-14T06:08:24.908Z,11.70
2019-01-14T06:09:24.894Z,10.90
2019-01-14T06:10:24.884Z,12.10
2019-01-14T06:11:24.884Z,12.90
2019-01-14T06:12:24.875Z,9.40
2019-01-14T06:13:24.871Z,7.30
2019-01-14T06:14:24.842Z,12.00
2019-01-14T06:15:24.831Z,12.30
2019-01-14T06:16:24.821Z,11.40
2019-01-14T06:17:24.820Z,11.00
2019-01-14T06:18:24.811Z,13.10
2019-01-14T06:19:24.787Z,10.90
2019-01-14T06:20:25.611Z,10.00
2019-01-14T06:21:24.763Z,9.90
2019-01-14T06:22:24.754Z,11.10
2019-01-14T06:23:24.753Z,11.40
2019-01-14T06:24:24.731Z,9.70
2019-01-14T06:25:24.722Z,10.40
2019-01-14T06:26:24.734Z,13.70
2019-01-14T06:27:24.697Z,11.40
2019-01-14T06:28:24.715Z,11.00
2019-01-14T06:29:24.679Z,15.40
2019-01-14T06:30:24.681Z,12.90
2019-01-14T06:31:24.657Z,16.70
2019-01-14T06:32:24.638Z,12.70
2019-01-14T06:33:24.637Z,15.30
2019-01-14T06:34:24.620Z,9.70
2019-01-14T06:35:24.620Z,9.70
2019-01-14T06:36:24.647Z,10.70
2019-01-14T06:37:24.585Z,12.60
2019-01-14T06:38:24.577Z,9.70
2019-01-14T06:39:24.567Z,13.70
2019-01-14T06:40:24.598Z,12.60
2019-01-14T06:41:24.557Z,15.20
2019-01-14T06:42:24.529Z,12.30
2019-01-14T06:43:24.523Z,9.00
2019-01-14T06:44:24.510Z,11.90
2019-01-14T06:45:24.495Z,9.30
2019-01-14T06:46:24.498Z,13.90
2019-01-14T06:47:24.483Z,11.60
2019-01-14T06:48:24.463Z,10.70
2019-01-14T06:49:24.453Z,13.40
2019-01-14T06:50:24.445Z,10.40
2019-01-14T06:51:24.451Z,6.60
2019-01-14T06:52:24.436Z,13.00
2019-01-14T06:53:24.408Z,8.90
2019-01-14T06:54:24.398Z,10.90
2019-01-14T06:55:24.386Z,9.70
2019-01-14T06:56:24.380Z,8.20
2019-01-14T06:57:24.407Z,10.00
2019-01-14T06:58:24.357Z,8.40
2019-01-14T06:59:24.346Z,11.40
2019-01-14T07:00:24.331Z,6.70
2019-01-14T07:01:24.323Z,7.30
2019-01-14T07:02:24.313Z,7.90
2019-01-14T07:03:24.326Z,8.70
2019-01-14T07:04:24.288Z,8.20
2019-01-14T07:05:24.280Z,11.20
2019-01-14T07:06:24.264Z,8.50
2019-01-14T07:07:24.279Z,9.70
2019-01-14T07:08:24.290Z,8.60
2019-01-14T07:09:24.250Z,8.80
2019-01-14T07:10:24.225Z,7.20
2019-01-14T07:11:24.208Z,11.20
2019-01-14T07:12:24.197Z,7.40
2019-01-14T07:13:24.201Z,10.20
2019-01-14T07:14:24.189Z,7.50
2019-01-14T07:15:24.164Z,10.30
2019-01-14T07:16:24.162Z,11.30
2019-01-14T07:17:24.162Z,10.50
2019-01-14T07:18:24.145Z,10.70
2019-01-14T07:19:24.151Z,14.20
2019-01-14T07:20:24.120Z,10.50
2019-01-14T07:21:24.106Z,9.50
2019-01-14T07:22:24.100Z,10.10
2019-01-14T07:23:24.090Z,8.30
2019-01-14T07:24:24.066Z,10.90
2019-01-14T07:25:24.110Z,10.20
2019-01-14T07:26:24.048Z,12.70
2019-01-14T07:27:24.620Z,10.30
2019-01-14T07:28:24.030Z,7.90
2019-01-14T07:29:24.024Z,10.90
2019-01-14T07:30:24.046Z,7.70
2019-01-14T07:31:23.996Z,9.00
2019-01-14T07:32:23.983Z,9.30
2019-01-14T07:33:23.973Z,6.30
2019-01-14T07:34:23.968Z,11.00
2019-01-14T07:35:23.997Z,7.70
2019-01-14T07:36:23.933Z,11.60
2019-01-14T07:37:23.923Z,8.30
2019-01-14T07:38:23.918Z,7.00
2019-01-14T07:39:23.904Z,10.30
2019-01-14T07:40:23.906Z,8.80
2019-01-14T07:41:23.911Z,5.60
2019-01-14T07:42:23.877Z,7.40
2019-01-14T07:43:23.907Z,7.60
2019-01-14T07:44:23.849Z,10.50
2019-01-14T07:45:23.841Z,8.90
2019-01-14T07:46:23.857Z,8.30
2019-01-14T07:47:23.813Z,8.40
2019-01-14T07:48:23.813Z,8.30
2019-01-14T07:49:23.803Z,9.30
2019-01-14T07:50:23.817Z,7.30
2019-01-14T07:51:23.782Z,9.60
2019-01-14T07:52:23.788Z,12.30
2019-01-14T07:53:23.801Z,5.20
2019-01-14T07:54:23.741Z,8.40
2019-01-14T07:55:23.731Z,8.40
2019-01-14T07:56:23.717Z,9.10
2019-01-14T07:57:23.730Z,9.90
2019-01-14T07:58:23.691Z,8.20
2019-01-14T07:59:23.681Z,9.60
2019-01-14T08:00:23.691Z,7.30
2019-01-14T08:01:23.666Z,10.20
2019-01-14T08:02:23.680Z,7.20
2019-01-14T08:03:23.653Z,8.60
2019-01-14T08:04:23.628Z,9.90
2019-01-14T08:05:23.621Z,9.10
2019-01-14T08:06:23.612Z,11.00
2019-01-14T08:07:23.628Z,15.30
2019-01-14T08:08:23.635Z,10.70
2019-01-14T08:09:23.587Z,11.10
2019-01-14T08:10:23.565Z,9.30
2019-01-14T08:11:23.555Z,12.60
2019-01-14T08:12:23.554Z,9.50
2019-01-14T08:13:23.534Z,8.60
2019-01-14T08:14:23.548Z,11.40
2019-01-14T08:15:23.522Z,7.50
2019-01-14T08:16:23.521Z,9.20
2019-01-14T08:17:23.484Z,9.10
2019-01-14T08:18:23.477Z,10.00
2019-01-14T08:19:23.653Z,10.10
2019-01-14T08:20:23.462Z,11.30
2019-01-14T08:21:23.450Z,10.30
2019-01-14T08:22:23.434Z,8.00
2019-01-14T08:23:23.422Z,10.80
2019-01-14T08:24:23.447Z,13.50
2019-01-14T08:25:23.403Z,12.00
2019-01-14T08:26:23.395Z,10.40
2019-01-14T08:27:23.378Z,8.60
2019-01-14T08:28:23.360Z,11.00
2019-01-14T08:29:23.354Z,9.00
2019-01-14T08:30:23.415Z,8.00
2019-01-14T08:31:23.331Z,11.30
2019-01-14T08:32:23.326Z,11.90
2019-01-14T08:33:23.311Z,12.50
2019-01-14T08:34:23.300Z,14.40
2019-01-14T08:35:23.291Z,6.40
2019-01-14T08:36:23.304Z,12.20
2019-01-14T08:37:23.268Z,12.20
2019-01-14T08:38:23.257Z,11.00
2019-01-14T08:39:23.315Z,11.10
2019-01-14T08:40:23.234Z,11.10
2019-01-14T08:41:23.283Z,10.00
2019-01-14T08:42:23.215Z,12.80
2019-01-14T08:43:23.217Z,8.10
2019-01-14T08:44:23.211Z,12.30
2019-01-14T08:45:23.181Z,12.30
2019-01-14T08:46:23.170Z,8.60
2019-01-14T08:47:23.229Z,10.40
2019-01-14T08:48:23.147Z,11.10
2019-01-14T08:49:23.134Z,12.60
2019-01-14T08:50:23.155Z,13.00
2019-01-14T08:51:23.112Z,9.50
2019-01-14T08:52:23.122Z,9.50
2019-01-14T08:53:23.092Z,12.10
2019-01-14T08:54:23.081Z,12.10
2019-01-14T08:55:23.077Z,14.80
2019-01-14T08:56:23.059Z,9.90
2019-01-14T08:57:23.097Z,7.80
2019-01-14T08:58:23.030Z,10.80
2019-01-14T08:59:23.027Z,9.30
2019-01-14T09:00:23.016Z,9.20
2019-01-14T09:01:22.999Z,9.00
2019-01-14T09:02:23.015Z,7.30
2019-01-14T09:03:23.004Z,9.40
2019-01-14T09:04:24.487Z,12.30
2019-01-14T09:05:22.971Z,12.50
2019-01-14T09:06:22.946Z,10.80
2019-01-14T09:07:22.949Z,12.60
2019-01-14T09:08:28.667Z,7.90
2019-01-14T09:09:23.948Z,10.30
2019-01-14T09:10:22.914Z,11.00
2019-01-14T09:11:22.898Z,13.10
2019-01-14T09:12:22.925Z,12.10
2019-01-14T09:13:22.891Z,9.50
2019-01-14T09:14:22.860Z,10.20
2019-01-14T09:15:22.856Z,9.60
2019-01-14T09:16:22.840Z,11.00
2019-01-14T09:17:22.839Z,10.90
2019-01-14T09:18:22.864Z,7.90
2019-01-14T09:19:22.800Z,7.80
2019-01-14T09:20:22.791Z,12.30
2019-01-14T09:21:22.785Z,8.80
2019-01-14T09:22:22.778Z,8.70
2019-01-14T09:23:22.754Z,10.70
2019-01-14T09:24:22.775Z,7.60
2019-01-14T09:25:22.733Z,13.00
2019-01-14T09:26:22.731Z,10.70
2019-01-14T09:27:22.716Z,11.40
2019-01-14T09:28:22.699Z,9.70
2019-01-14T09:29:43.695Z,12.40
2019-01-14T09:30:22.683Z,11.70
2019-01-14T09:31:22.720Z,8.50
2019-01-14T09:32:22.655Z,9.20
2019-01-14T09:33:22.651Z,8.60
2019-01-14T09:34:22.655Z,10.10
2019-01-14T09:35:22.644Z,9.30
2019-01-14T09:36:22.623Z,10.10
2019-01-14T09:37:22.631Z,9.80
2019-01-14T09:38:22.597Z,8.50
2019-01-14T09:39:22.609Z,12.70
2019-01-14T09:40:22.608Z,11.60
2019-01-14T09:41:22.564Z,13.30
2019-01-14T09:42:22.553Z,9.90
2019-01-14T09:43:22.539Z,12.30
2019-01-14T09:44:22.555Z,15.50
2019-01-14T09:45:22.542Z,7.10
2019-01-14T09:46:22.513Z,6.80
2019-01-14T09:47:22.496Z,8.60
2019-01-14T09:48:22.521Z,9.00
2019-01-14T09:49:22.469Z,10.30
2019-01-14T09:50:22.493Z,9.80
2019-01-14T09:51:22.488Z,8.60
2019-01-14T09:52:22.440Z,9.80
2019-01-14T09:53:23.152Z,7.50
2019-01-14T09:54:22.427Z,6.70
2019-01-14T09:55:22.445Z,10.00
2019-01-14T09:56:22.396Z,6.60
2019-01-14T09:57:22.386Z,7.90
2019-01-14T09:58:22.369Z,8.10
2019-01-14T09:59:22.365Z,8.30
2019-01-14T10:00:22.389Z,7.50
2019-01-14T10:01:22.375Z,7.90
2019-01-14T10:02:22.363Z,4.80
2019-01-14T10:03:22.317Z,6.00
2019-01-14T10:04:22.329Z,8.90
2019-01-14T10:05:22.346Z,8.80
2019-01-14T10:06:22.320Z,8.90
2019-01-14T10:07:22.269Z,8.20
2019-01-14T10:08:22.292Z,9.70
2019-01-14T10:09:22.256Z,7.60
2019-01-14T10:10:22.239Z,9.30
2019-01-14T10:11:22.311Z,8.70
2019-01-14T10:12:22.251Z,7.50
2019-01-14T10:13:22.208Z,8.60
2019-01-14T10:14:22.246Z,9.30
2019-01-14T10:15:22.208Z,9.70
2019-01-14T10:16:22.179Z,5.60
2019-01-14T10:17:22.169Z,9.10
2019-01-14T10:18:22.154Z,7.60
2019-01-14T10:19:22.151Z,7.70
2019-01-14T10:20:22.132Z,6.00
2019-01-14T10:21:22.117Z,8.40
2019-01-14T10:22:22.113Z,7.00
2019-01-14T10:23:22.110Z,6.40
2019-01-14T10:24:22.093Z,13.40
2019-01-14T10:25:22.074Z,9.10
2019-01-14T10:26:22.063Z,8.00
2019-01-14T10:27:22.088Z,7.20
2019-01-14T10:28:22.089Z,6.10
2019-01-14T10:29:22.044Z,8.30
2019-01-14T10:30:22.017Z,6.50
2019-01-14T10:31:22.012Z,8.80
2019-01-14T10:32:21.999Z,7.00
2019-01-14T10:33:21.983Z,6.50
2019-01-14T10:34:21.994Z,8.00
2019-01-14T10:35:21.991Z,9.20
2019-01-14T10:36:21.953Z,7.60
2019-01-14T10:37:22.954Z,8.60
2019-01-14T10:38:21.941Z,9.00
2019-01-14T10:39:21.920Z,7.30
2019-01-14T10:40:21.904Z,6.00
2019-01-14T10:41:21.909Z,7.90
2019-01-14T10:42:21.884Z,10.30
2019-01-14T10:43:21.886Z,8.90
2019-01-14T10:44:21.862Z,7.80
2019-01-14T10:45:21.851Z,8.60
2019-01-14T10:46:21.865Z,6.30
2019-01-14T10:47:21.833Z,9.40
2019-01-14T10:48:21.820Z,7.10
2019-01-14T10:49:21.810Z,11.40
2019-01-14T10:50:21.802Z,10.40
2019-01-14T10:51:21.812Z,7.50
2019-01-14T10:52:21.769Z,8.80
2019-01-14T10:53:21.760Z,8.10
2019-01-14T10:54:21.747Z,7.70
2019-01-14T10:55:21.741Z,8.10
2019-01-14T10:56:21.746Z,9.70
2019-01-14T10:57:21.889Z,9.90
2019-01-14T10:58:21.708Z,4.20
2019-01-14T10:59:21.697Z,6.60
2019-01-14T11:00:21.689Z,7.10
2019-01-14T11:01:21.688Z,4.50
2019-01-14T11:02:21.661Z,8.80
2019-01-14T11:03:21.657Z,7.20
2019-01-14T11:04:21.645Z,8.10
2019-01-14T11:05:21.632Z,9.70
2019-01-14T11:06:21.702Z,10.30
2019-01-14T11:07:21.609Z,8.00
2019-01-14T11:08:21.599Z,6.90
2019-01-14T11:09:21.613Z,7.10
2019-01-14T11:10:21.579Z,7.60
2019-01-14T11:11:21.559Z,6.80
2019-01-14T11:12:21.594Z,7.70
2019-01-14T11:13:21.545Z,6.10
2019-01-14T11:14:21.528Z,6.60
2019-01-14T11:15:21.519Z,5.30
2019-01-14T11:16:21.506Z,6.30
2019-01-14T11:17:21.500Z,6.60
2019-01-14T11:18:21.509Z,7.20
2019-01-14T11:19:21.537Z,7.90
2019-01-14T11:20:21.464Z,6.00
2019-01-14T11:21:21.489Z,5.60
2019-01-14T11:22:21.455Z,5.90
2019-01-14T11:23:21.466Z,7.60
2019-01-14T11:24:21.426Z,6.20
2019-01-14T11:25:21.410Z,4.40
2019-01-14T11:26:21.411Z,3.80
2019-01-14T11:27:21.383Z,5.10
2019-01-14T11:28:21.430Z,4.80
2019-01-14T11:29:21.371Z,4.60
2019-01-14T11:30:21.352Z,7.30
2019-01-14T11:31:21.343Z,7.00
2019-01-14T11:32:21.345Z,7.20
2019-01-14T11:33:21.323Z,4.20
2019-01-14T11:34:21.393Z,4.80
2019-01-14T11:35:21.305Z,5.60
2019-01-14T11:36:21.354Z,7.00
2019-01-14T11:37:21.279Z,6.30
2019-01-14T11:38:21.275Z,5.40
2019-01-14T11:39:21.259Z,5.80
2019-01-14T11:40:21.253Z,6.60
2019-01-14T11:41:21.236Z,6.50
2019-01-14T11:42:21.217Z,5.70
2019-01-14T11:43:21.234Z,4.70
2019-01-14T11:44:21.195Z,5.50
2019-01-14T11:45:21.216Z,4.00
2019-01-14T11:46:21.173Z,5.60
2019-01-14T11:47:21.181Z,7.70
2019-01-14T11:48:21.156Z,5.80
2019-01-14T11:49:21.159Z,5.40
2019-01-14T11:50:21.130Z,6.40
2019-01-14T11:51:21.121Z,4.30
2019-01-14T11:52:21.107Z,8.70
2019-01-14T11:53:21.100Z,8.80
2019-01-14T11:54:21.089Z,5.20
2019-01-14T11:55:21.110Z,3.10
2019-01-14T11:56:21.063Z,9.80
2019-01-14T11:57:21.113Z,6.00
2019-01-14T11:58:21.041Z,5.60
2019-01-14T11:59:21.035Z,4.70
2019-01-14T12:00:21.031Z,4.40
2019-01-14T12:01:21.020Z,4.80
2019-01-14T12:02:21.003Z,4.90
2019-01-14T12:03:21.026Z,4.30
2019-01-14T12:04:20.974Z,5.80
2019-01-14T12:05:20.966Z,4.90
2019-01-14T12:06:20.959Z,4.60
2019-01-14T12:07:20.950Z,5.30
2019-01-14T12:08:21.131Z,4.50
2019-01-14T12:09:20.917Z,4.50
2019-01-14T12:10:20.913Z,4.70
2019-01-14T12:11:21.669Z,3.90
2019-01-14T12:12:20.892Z,4.60
2019-01-14T12:13:20.944Z,6.30
2019-01-14T12:14:21.637Z,6.80
2019-01-14T12:15:20.850Z,3.90
2019-01-14T12:16:20.845Z,4.30
2019-01-14T12:17:20.834Z,5.60
2019-01-14T12:18:20.816Z,3.50
2019-01-14T12:19:20.848Z,5.70
2019-01-14T12:20:20.796Z,3.60
2019-01-14T12:21:20.782Z,4.20
2019-01-14T12:22:20.814Z,3.60
2019-01-14T12:23:20.765Z,9.40
2019-01-14T12:24:20.757Z,3.60
2019-01-14T12:25:20.798Z,5.00
2019-01-14T12:26:20.729Z,4.00
2019-01-14T12:27:20.716Z,4.80
2019-01-14T12:28:20.709Z,6.50
2019-01-14T12:29:20.726Z,4.30
2019-01-14T12:30:20.688Z,5.60
2019-01-14T12:31:20.713Z,6.00
2019-01-14T12:32:20.665Z,5.80
2019-01-14T12:33:20.686Z,5.50
2019-01-14T12:34:20.638Z,3.70
2019-01-14T12:35:20.634Z,4.60
2019-01-14T12:36:20.639Z,3.80
2019-01-14T12:37:20.608Z,6.40
2019-01-14T12:38:20.633Z,4.10
2019-01-14T12:39:20.583Z,5.60
2019-01-14T12:40:20.579Z,6.50
2019-01-14T12:41:20.605Z,6.60
2019-01-14T12:42:20.550Z,6.40
2019-01-14T12:43:20.538Z,4.10
2019-01-14T12:44:20.581Z,5.60
2019-01-14T12:45:20.530Z,3.30
2019-01-14T12:46:20.506Z,4.00
2019-01-14T12:47:20.503Z,3.90
2019-01-14T12:48:20.482Z,8.40
2019-01-14T12:49:20.474Z,4.50
2019-01-14T12:50:20.519Z,5.60
2019-01-14T12:51:20.456Z,5.80
2019-01-14T12:52:20.464Z,4.90
2019-01-14T12:53:20.439Z,4.40
2019-01-14T12:54:20.438Z,6.00
2019-01-14T12:55:21.180Z,3.00
2019-01-14T12:56:20.412Z,3.50
2019-01-14T12:57:20.423Z,3.30
2019-01-14T12:58:20.379Z,6.60
2019-01-14T12:59:20.363Z,5.20
2019-01-14T13:00:20.356Z,5.40
2019-01-14T13:01:20.390Z,5.50
2019-01-14T13:02:20.333Z,6.40